createdAt,value
2019-01-30T00:01:21.519Z,-0.20
2019-01-30T00:03:50.080Z,-0.20
2019-01-30T00:06:18.559Z,-0.20
2019-01-30T00:08:47.000Z,-0.20
2019-01-30T00:11:15.456Z,-0.30
2019-01-30T00:13:43.894Z,-0.40
2019-01-30T00:16:12.423Z,-0.40
2019-01-30T00:18:40.883Z,-0.50
2019-01-30T00:21:09.358Z,-0.30
2019-01-30T00:23:37.889Z,-0.30
2019-01-30T00:26:06.448Z,-0.40
2019-01-30T00:28:34.902Z,-0.50
2019-01-30T00:31:03.363Z,-0.50
2019-01-30T00:33:31.818Z,-0.60
2019-01-30T00:36:00.761Z,-0.60
2019-01-30T00:38:29.298Z,-0.60
2019-01-30T00:40:57.943Z,-0.70
2019-01-30T00:43:26.567Z,-0.70
2019-01-30T00:45:55.254Z,-0.70
2019-01-30T00:48:23.783Z,-0.70
2019-01-30T00:50:52.396Z,-0.60
2019-01-30T00:53:20.901Z,-0.60
2019-01-30T00:55:49.429Z,-0.80
2019-01-30T00:58:17.987Z,-0.80
2019-01-30T01:00:46.802Z,-0.80
2019-01-30T01:03:15.432Z,-0.80
2019-01-30T01:05:43.994Z,-0.90
2019-01-30T01:08:12.633Z,-0.90
2019-01-30T01:10:41.270Z,-1.10
2019-01-30T01:13:09.749Z,-1.10
2019-01-30T01:15:38.301Z,-1.20
2019-01-30T01:18:06.852Z,-1.10
2019-01-30T01:20:35.581Z,-1.10
2019-01-30T01:23:05.301Z,-1.10
2019-01-30T01:25:33.798Z,-1.00
2019-01-30T01:28:02.407Z,-1.10
2019-01-30T01:30:30.972Z,-1.20
2019-01-30T01:32:59.628Z,-1.20
2019-01-30T01:35:28.255Z,-1.20
2019-01-30T01:37:56.915Z,-1.30
2019-01-30T01:40:25.660Z,-1.20
2019-01-30T01:42:54.238Z,-1.20
2019-01-30T01:45:25.996Z,-1.30
2019-01-30T01:47:54.557Z,-1.30
2019-01-30T01:50:23.360Z,-1.30
2019-01-30T01:52:51.910Z,-1.50
2019-01-30T01:55:20.523Z,-1.60
2019-01-30T01:57:49.049Z,-1.60
2019-01-30T02:00:22.945Z,-1.70
2019-01-30T02:02:51.536Z,-1.50
2019-01-30T02:05:24.331Z,-1.50
2019-01-30T02:07:53.089Z,-1.50
2019-01-30T02:10:27.131Z,-1.40
2019-01-30T02:12:55.788Z,-1.40
2019-01-30T02:15:24.731Z,-1.30
2019-01-30T02:17:53.729Z,-1.40
2019-01-30T02:20:24.779Z,-1.50
2019-01-30T02:22:53.315Z,-1.50
2019-01-30T02:25:21.932Z,-1.60
2019-01-30T02:27:50.576Z,-1.60
2019-01-30T02:30:27.322Z,-1.60
2019-01-30T02:32:55.976Z,-1.50
2019-01-30T02:35:24.547Z,-1.50
2019-01-30T02:37:53.212Z,-1.60
2019-01-30T02:40:24.060Z,-1.60
2019-01-30T02:42:52.836Z,-1.60
2019-01-30T02:45:26.485Z,-1.70
2019-01-30T02:47:55.180Z,-1.60
2019-01-30T02:50:23.959Z,-1.60
2019-01-30T02:52:52.543Z,-1.70
2019-01-30T02:55:21.362Z,-1.80
2019-01-30T02:57:49.963Z,-1.80
2019-01-30T03:00:21.248Z,-1.90
2019-01-30T03:02:49.766Z,-1.80
2019-01-30T03:05:18.677Z,-1.80
2019-01-30T03:07:47.293Z,-1.60
2019-01-30T03:10:17.675Z,-1.50
2019-01-30T03:12:46.494Z,-1.30
2019-01-30T03:15:16.870Z,-1.30
2019-01-30T03:17:45.680Z,-1.20
2019-01-30T03:20:17.152Z,-1.20
2019-01-30T03:22:45.733Z,-1.10
2019-01-30T03:25:16.351Z,-1.10
2019-01-30T03:27:45.128Z,-1.00
2019-01-30T03:30:16.720Z,-1.10
2019-01-30T03:32:45.299Z,-1.10
2019-01-30T03:35:13.823Z,-1.10
2019-01-30T03:37:42.390Z,-1.10
2019-01-30T03:40:14.213Z,-1.10
2019-01-30T03:42:42.756Z,-1.10
2019-01-30T03:45:13.854Z,-1.10
2019-01-30T03:47:42.393Z,-1.10
2019-01-30T03:50:13.105Z,-1.10
2019-01-30T03:52:41.933Z,-1.00
2019-01-30T03:55:15.234Z,-1.00
2019-01-30T03:57:43.854Z,-1.00
2019-01-30T04:00:20.586Z,-1.10
2019-01-30T04:02:50.684Z,-1.10
2019-01-30T04:05:19.373Z,-1.00
2019-01-30T04:07:47.816Z,-1.00
2019-01-30T04:10:20.870Z,-1.00
2019-01-30T04:12:49.743Z,-1.00
2019-01-30T04:15:18.574Z,-1.00
2019-01-30T04:17:47.101Z,-1.00
2019-01-30T04:20:20.296Z,-1.00
2019-01-30T04:22:49.035Z,-0.80
2019-01-30T04:25:17.522Z,-0.70
2019-01-30T04:27:46.122Z,-0.70
2019-01-30T04:30:23.401Z,-0.80
2019-01-30T04:32:52.189Z,-0.70
2019-01-30T04:35:20.955Z,-0.80
2019-01-30T04:37:49.447Z,-0.80
2019-01-30T04:40:19.769Z,-0.90
2019-01-30T04:42:48.571Z,-0.80
2019-01-30T04:45:20.112Z,-0.90
2019-01-30T04:47:48.990Z,-0.80
2019-01-30T04:50:17.823Z,-0.80
2019-01-30T04:52:46.360Z,-0.90
2019-01-30T04:55:15.379Z,-0.80
2019-01-30T04:57:44.021Z,-0.70
2019-01-30T05:00:18.540Z,-0.80
2019-01-30T05:02:47.077Z,-0.80
2019-01-30T05:05:15.708Z,-0.80
2019-01-30T05:07:44.212Z,-0.80
2019-01-30T05:10:14.199Z,-0.70
2019-01-30T05:12:42.927Z,-0.60
2019-01-30T05:15:14.343Z,-0.60
2019-01-30T05:17:42.905Z,-0.60
2019-01-30T05:20:13.801Z,-0.70
2019-01-30T05:22:42.462Z,-0.80
2019-01-30T05:25:11.848Z,-0.70
2019-01-30T05:27:40.375Z,-0.60
2019-01-30T05:30:14.659Z,-0.60
2019-01-30T05:32:43.219Z,-0.50
2019-01-30T05:35:11.756Z,-0.50
2019-01-30T05:37:40.303Z,-0.40
2019-01-30T05:40:11.889Z,-0.40
2019-01-30T05:42:40.413Z,-0.40
2019-01-30T05:45:11.807Z,-0.40
2019-01-30T05:47:40.349Z,-0.40
2019-01-30T05:50:10.545Z,-0.30
2019-01-30T05:52:39.091Z,-0.30
2019-01-30T05:55:09.601Z,-0.30
2019-01-30T05:57:38.085Z,-0.30
2019-01-30T06:00:09.640Z,-0.20
2019-01-30T06:02:38.210Z,-0.20
2019-01-30T06:05:06.929Z,-0.10
2019-01-30T06:07:35.387Z,-0.20
2019-01-30T06:10:05.608Z,-0.20
2019-01-30T06:12:34.236Z,-0.20
2019-01-30T06:15:03.236Z,-0.20
2019-01-30T06:17:34.466Z,-0.20
2019-01-30T06:20:03.347Z,-0.30
2019-01-30T06:22:37.946Z,-0.40
2019-01-30T06:25:08.630Z,-0.50
2019-01-30T06:27:37.188Z,-0.50
2019-01-30T06:30:11.887Z,-0.50
2019-01-30T06:32:40.337Z,-0.50
2019-01-30T06:35:09.257Z,-0.50
2019-01-30T06:37:38.000Z,-0.50
2019-01-30T06:40:14.963Z,-0.50
2019-01-30T06:42:43.419Z,-0.50
2019-01-30T06:45:12.428Z,-0.60
2019-01-30T06:47:40.950Z,-0.60
2019-01-30T06:50:14.101Z,-0.60
2019-01-30T06:52:42.553Z,-0.70
2019-01-30T06:55:11.140Z,-0.60
2019-01-30T06:57:39.637Z,-0.60
2019-01-30T07:00:19.232Z,-0.70
2019-01-30T07:02:47.922Z,-0.70
2019-01-30T07:05:16.626Z,-0.60
2019-01-30T07:07:45.302Z,-0.60
2019-01-30T07:10:19.573Z,-0.60
2019-01-30T07:12:48.097Z,-0.70
2019-01-30T07:15:16.892Z,-0.70
2019-01-30T07:17:45.480Z,-0.70
2019-01-30T07:20:16.087Z,-0.70
2019-01-30T07:22:44.639Z,-0.70
2019-01-30T07:25:21.569Z,-0.80
2019-01-30T07:27:50.352Z,-0.80
2019-01-30T07:30:24.719Z,-0.70
2019-01-30T07:32:53.225Z,-0.80
2019-01-30T07:35:21.799Z,-0.80
2019-01-30T07:37:50.393Z,-0.70
2019-01-30T07:40:18.995Z,-0.80
2019-01-30T07:42:47.511Z,-0.80
2019-01-30T07:45:19.056Z,-0.80
2019-01-30T07:47:47.495Z,-0.80
2019-01-30T07:50:16.238Z,-0.80
2019-01-30T07:52:44.689Z,-0.80
2019-01-30T07:55:15.772Z,-0.80
2019-01-30T07:57:44.636Z,-0.80
2019-01-30T08:00:21.340Z,-0.80
2019-01-30T08:02:53.541Z,-0.80
2019-01-30T08:05:22.735Z,-0.80
2019-01-30T08:07:51.278Z,-0.80
2019-01-30T08:10:20.015Z,-0.80
2019-01-30T08:12:48.704Z,-0.80
2019-01-30T08:15:24.623Z,-0.80
2019-01-30T08:17:53.256Z,-0.80
2019-01-30T08:20:22.903Z,-0.80
2019-01-30T08:22:51.538Z,-0.70
2019-01-30T08:25:21.900Z,-0.70
2019-01-30T08:27:50.923Z,-0.70
2019-01-30T08:30:28.023Z,-0.70
2019-01-30T08:33:04.295Z,-0.60
2019-01-30T08:35:29.751Z,-0.60
2019-01-30T08:37:58.350Z,-0.50
2019-01-30T08:40:26.938Z,-0.50
2019-01-30T08:42:55.508Z,-0.50
2019-01-30T08:45:26.314Z,-0.50
2019-01-30T08:47:54.923Z,-0.60
2019-01-30T08:50:23.741Z,-0.50
2019-01-30T08:52:52.410Z,-0.50
2019-01-30T08:55:20.951Z,-0.50
2019-01-30T08:57:49.497Z,-0.40
2019-01-30T09:00:29.230Z,-0.40
2019-01-30T09:02:57.798Z,-0.30
2019-01-30T09:05:26.580Z,-0.30
2019-01-30T09:07:55.920Z,-0.30
2019-01-30T09:10:26.404Z,-0.30
2019-01-30T09:12:54.931Z,-0.30
2019-01-30T09:15:24.932Z,-0.40
2019-01-30T09:17:53.687Z,-0.30
2019-01-30T09:20:24.248Z,-0.30
2019-01-30T09:22:52.836Z,-0.20
2019-01-30T09:25:26.380Z,-0.10
2019-01-30T09:27:54.926Z,-0.10
2019-01-30T09:30:28.719Z,-0.20
2019-01-30T09:32:57.283Z,-0.10
2019-01-30T09:35:25.941Z,-0.10
2019-01-30T09:37:54.750Z,-0.10
2019-01-30T09:40:23.600Z,0.00
2019-01-30T09:42:52.242Z,0.00
2019-01-30T09:45:22.145Z,0.00
2019-01-30T09:47:50.675Z,0.10
2019-01-30T09:50:26.302Z,0.10
2019-01-30T09:52:55.244Z,0.20
2019-01-30T09:55:23.948Z,0.30
2019-01-30T09:57:52.593Z,0.30
2019-01-30T10:00:28.826Z,0.40
2019-01-30T10:02:57.389Z,0.50
2019-01-30T10:05:26.260Z,0.50
2019-01-30T10:07:55.245Z,0.50
2019-01-30T10:10:26.752Z,0.50
2019-01-30T10:12:55.268Z,0.40
2019-01-30T10:15:26.756Z,0.30
2019-01-30T10:17:55.275Z,0.30
2019-01-30T10:20:25.787Z,0.40
2019-01-30T10:22:54.476Z,0.40
2019-01-30T10:25:23.371Z,0.50
2019-01-30T10:27:51.952Z,0.50
2019-01-30T10:30:23.509Z,0.60
2019-01-30T10:32:52.100Z,0.70
2019-01-30T10:35:20.732Z,0.60
2019-01-30T10:37:49.297Z,0.50
2019-01-30T10:40:21.970Z,0.50
2019-01-30T10:42:51.356Z,0.50
2019-01-30T10:45:20.264Z,0.50
2019-01-30T10:47:48.712Z,0.50
2019-01-30T10:50:24.861Z,0.40
2019-01-30T10:52:53.448Z,0.40
2019-01-30T10:55:27.635Z,0.50
2019-01-30T10:57:58.129Z,0.50
2019-01-30T11:00:32.646Z,0.50
2019-01-30T11:03:01.233Z,0.40
2019-01-30T11:05:29.823Z,0.30
2019-01-30T11:07:58.276Z,0.30
2019-01-30T11:10:27.613Z,0.30
2019-01-30T11:12:56.132Z,0.30
2019-01-30T11:15:27.303Z,0.30
2019-01-30T11:17:56.785Z,0.30
2019-01-30T11:20:25.470Z,0.30
2019-01-30T11:22:54.078Z,0.40
2019-01-30T11:25:28.439Z,0.40
2019-01-30T11:27:57.082Z,0.40
2019-01-30T11:30:25.669Z,0.30
2019-01-30T11:32:55.567Z,0.30
2019-01-30T11:35:24.394Z,0.20
2019-01-30T11:37:52.932Z,0.20
2019-01-30T11:40:22.823Z,0.30
2019-01-30T11:42:51.427Z,0.40
2019-01-30T11:45:25.549Z,0.50
2019-01-30T11:47:54.121Z,0.50
2019-01-30T11:50:22.640Z,0.40
2019-01-30T11:52:51.106Z,0.30
2019-01-30T11:55:20.086Z,0.40
2019-01-30T11:57:48.983Z,0.50
2019-01-30T12:00:30.359Z,0.50
2019-01-30T12:02:58.975Z,0.50
2019-01-30T12:05:27.445Z,0.60
2019-01-30T12:07:55.980Z,0.60
2019-01-30T12:10:24.489Z,0.70
2019-01-30T12:12:52.997Z,0.70
2019-01-30T12:15:23.496Z,0.70
2019-01-30T12:17:52.065Z,0.70
2019-01-30T12:20:20.515Z,0.70
2019-01-30T12:22:49.243Z,0.60
2019-01-30T12:25:19.533Z,0.50
2019-01-30T12:27:50.686Z,0.50
2019-01-30T12:30:29.468Z,0.50
2019-01-30T12:32:58.019Z,0.50
2019-01-30T12:35:26.635Z,0.50
2019-01-30T12:37:55.236Z,0.60
2019-01-30T12:40:24.822Z,0.50
2019-01-30T12:42:54.030Z,0.50
2019-01-30T12:45:28.114Z,0.50
2019-01-30T12:47:57.087Z,0.40
2019-01-30T12:50:25.859Z,0.50
2019-01-30T12:52:54.323Z,0.50
2019-01-30T12:55:23.062Z,0.60
2019-01-30T12:57:51.604Z,0.70
2019-01-30T13:00:23.238Z,0.70
2019-01-30T13:02:52.350Z,0.60
2019-01-30T13:05:22.076Z,0.50
2019-01-30T13:07:50.700Z,0.50
2019-01-30T13:10:19.706Z,0.50
2019-01-30T13:12:48.167Z,0.60
2019-01-30T13:15:18.987Z,0.60
2019-01-30T13:17:47.607Z,0.60
2019-01-30T13:20:17.796Z,0.70
2019-01-30T13:22:46.499Z,0.60
2019-01-30T13:25:17.644Z,0.60
2019-01-30T13:27:46.092Z,0.60
2019-01-30T13:30:20.764Z,0.70
2019-01-30T13:32:49.404Z,0.70
2019-01-30T13:35:17.948Z,0.70
2019-01-30T13:37:46.474Z,0.70
2019-01-30T13:40:20.798Z,0.70
2019-01-30T13:42:49.248Z,0.60
2019-01-30T13:45:17.880Z,0.60
2019-01-30T13:47:46.387Z,0.70
2019-01-30T13:50:18.138Z,0.80
2019-01-30T13:52:46.780Z,0.80
2019-01-30T13:55:16.742Z,0.80
2019-01-30T13:57:45.368Z,0.70
2019-01-30T14:00:19.904Z,0.60
2019-01-30T14:02:48.424Z,0.50
2019-01-30T14:05:17.028Z,0.50
2019-01-30T14:07:45.561Z,0.50
2019-01-30T14:10:14.729Z,0.60
2019-01-30T14:12:43.187Z,0.60
2019-01-30T14:15:14.927Z,0.60
2019-01-30T14:17:43.392Z,0.50
2019-01-30T14:20:14.231Z,0.60
2019-01-30T14:22:42.799Z,0.50
2019-01-30T14:25:13.158Z,0.40
2019-01-30T14:27:41.963Z,0.40
2019-01-30T14:30:25.236Z,0.30
2019-01-30T14:32:54.006Z,0.30
2019-01-30T14:35:23.571Z,0.30
2019-01-30T14:37:52.384Z,0.30
2019-01-30T14:40:22.041Z,0.30
2019-01-30T14:42:50.898Z,0.30
2019-01-30T14:45:20.131Z,0.30
2019-01-30T14:47:50.779Z,0.30
2019-01-30T14:50:22.399Z,0.30
2019-01-30T14:52:51.080Z,0.30
2019-01-30T14:55:19.919Z,0.20
2019-01-30T14:57:48.647Z,0.20
2019-01-30T15:00:28.592Z,0.30
2019-01-30T15:02:57.396Z,0.20
2019-01-30T15:05:26.244Z,0.20
2019-01-30T15:07:54.780Z,0.30
2019-01-30T15:10:25.373Z,0.30
2019-01-30T15:12:54.002Z,0.30
2019-01-30T15:15:25.576Z,0.20
2019-01-30T15:17:54.181Z,0.20
2019-01-30T15:20:25.295Z,0.20
2019-01-30T15:22:54.029Z,0.20
2019-01-30T15:25:23.976Z,0.20
2019-01-30T15:27:52.695Z,0.20
2019-01-30T15:30:26.767Z,0.20
2019-01-30T15:32:55.578Z,0.20
2019-01-30T15:35:33.308Z,0.20
2019-01-30T15:37:54.363Z,0.20
2019-01-30T15:40:25.552Z,0.20
2019-01-30T15:42:54.267Z,0.10
2019-01-30T15:45:24.747Z,0.20
2019-01-30T15:47:53.295Z,0.10
2019-01-30T15:50:24.089Z,0.10
2019-01-30T15:52:53.187Z,0.10
2019-01-30T15:55:22.049Z,0.10
2019-01-30T15:57:56.222Z,0.10
2019-01-30T16:00:39.669Z,0.10
2019-01-30T16:03:08.132Z,0.10
2019-01-30T16:05:44.669Z,0.10
2019-01-30T16:08:07.080Z,0.10
2019-01-30T16:10:35.592Z,0.10
2019-01-30T16:13:04.691Z,0.10
2019-01-30T16:15:39.037Z,0.10
2019-01-30T16:18:07.843Z,0.10
2019-01-30T16:20:36.305Z,0.10
2019-01-30T16:23:05.483Z,0.10
2019-01-30T16:25:33.944Z,0.10
2019-01-30T16:28:02.637Z,0.10
2019-01-30T16:30:31.097Z,0.10
2019-01-30T16:32:59.535Z,0.00
2019-01-30T16:35:30.553Z,0.00
2019-01-30T16:37:59.336Z,0.00
2019-01-30T16:40:27.863Z,0.00
2019-01-30T16:42:56.310Z,0.00
2019-01-30T16:45:29.767Z,0.00
2019-01-30T16:47:58.349Z,0.10
2019-01-30T16:50:26.961Z,0.10
2019-01-30T16:52:55.743Z,0.10
2019-01-30T16:55:24.557Z,0.10
2019-01-30T16:57:53.251Z,0.10
2019-01-30T17:00:36.338Z,0.00
2019-01-30T17:03:07.402Z,0.00
2019-01-30T17:05:36.017Z,0.00
2019-01-30T17:08:05.290Z,0.10
2019-01-30T17:10:33.897Z,0.10
2019-01-30T17:13:02.348Z,0.10
2019-01-30T17:15:39.231Z,0.10
2019-01-30T17:18:09.451Z,0.10
2019-01-30T17:20:39.948Z,0.10
2019-01-30T17:23:08.539Z,0.10
2019-01-30T17:25:37.243Z,0.10
2019-01-30T17:28:05.876Z,0.10
2019-01-30T17:30:37.475Z,0.10
2019-01-30T17:33:06.107Z,0.10
2019-01-30T17:35:34.553Z,0.10
2019-01-30T17:38:03.160Z,0.10
2019-01-30T17:40:31.873Z,0.10
2019-01-30T17:43:00.610Z,0.20
2019-01-30T17:45:29.128Z,0.20
2019-01-30T17:47:57.847Z,0.20
2019-01-30T17:50:28.647Z,0.10
2019-01-30T17:52:57.315Z,0.20
2019-01-30T17:55:26.414Z,0.20
2019-01-30T17:57:55.303Z,0.20
2019-01-30T18:00:46.519Z,0.20
2019-01-30T18:03:14.060Z,0.20
2019-01-30T18:05:42.576Z,0.20
2019-01-30T18:08:11.117Z,0.20
2019-01-30T18:10:39.623Z,0.10
2019-01-30T18:13:08.320Z,0.10
2019-01-30T18:15:36.995Z,0.20
2019-01-30T18:18:05.535Z,0.20
2019-01-30T18:20:34.148Z,0.20
2019-01-30T18:23:02.616Z,0.20
2019-01-30T18:25:31.321Z,0.20
2019-01-30T18:27:59.953Z,0.20
2019-01-30T18:30:28.459Z,0.20
2019-01-30T18:32:56.926Z,0.20
2019-01-30T18:35:25.427Z,0.20
2019-01-30T18:37:53.969Z,0.20
2019-01-30T18:40:27.564Z,0.20
2019-01-30T18:42:56.036Z,0.20
2019-01-30T18:45:26.107Z,0.20
2019-01-30T18:47:55.408Z,0.20
2019-01-30T18:50:26.395Z,0.20
2019-01-30T18:52:55.404Z,0.20
2019-01-30T18:55:24.291Z,0.20
2019-01-30T18:57:52.984Z,0.20
2019-01-30T19:00:32.979Z,0.20
2019-01-30T19:03:02.946Z,0.20
2019-01-30T19:05:32.817Z,0.10
2019-01-30T19:08:01.276Z,0.20
2019-01-30T19:10:29.716Z,0.20
2019-01-30T19:12:58.174Z,0.20
2019-01-30T19:15:27.861Z,0.20
2019-01-30T19:17:56.466Z,0.20
2019-01-30T19:20:30.717Z,0.20
2019-01-30T19:22:59.240Z,0.20
2019-01-30T19:25:27.681Z,0.20
2019-01-30T19:27:56.333Z,0.20
2019-01-30T19:30:26.968Z,0.20
2019-01-30T19:32:55.572Z,0.10
2019-01-30T19:35:24.323Z,0.20
2019-01-30T19:37:53.130Z,0.10
2019-01-30T19:40:22.548Z,0.20
2019-01-30T19:42:51.368Z,0.20
2019-01-30T19:45:22.817Z,0.20
2019-01-30T19:47:51.454Z,0.20
2019-01-30T19:50:21.948Z,0.10
2019-01-30T19:52:50.762Z,0.10
2019-01-30T19:55:19.350Z,0.20
2019-01-30T19:57:47.829Z,0.20
2019-01-30T20:00:21.868Z,0.20
2019-01-30T20:02:50.641Z,0.20
2019-01-30T20:05:19.629Z,0.20
2019-01-30T20:07:48.630Z,0.20
2019-01-30T20:10:19.989Z,0.20
2019-01-30T20:12:48.787Z,0.10
2019-01-30T20:15:17.476Z,0.10
2019-01-30T20:17:45.945Z,0.10
2019-01-30T20:20:17.021Z,0.10
2019-01-30T20:22:46.017Z,0.10
2019-01-30T20:25:23.133Z,0.10
2019-01-30T20:27:51.591Z,0.10
2019-01-30T20:30:22.101Z,0.10
2019-01-30T20:32:50.626Z,0.00
2019-01-30T20:35:19.215Z,0.00
2019-01-30T20:37:47.672Z,0.00
2019-01-30T20:40:18.995Z,0.00
2019-01-30T20:42:47.523Z,-0.10
2019-01-30T20:45:16.297Z,-0.10
2019-01-30T20:47:44.837Z,-0.10
2019-01-30T20:50:15.794Z,-0.10
2019-01-30T20:52:44.323Z,-0.10
2019-01-30T20:55:15.319Z,-0.20
2019-01-30T20:57:43.933Z,-0.20
2019-01-30T21:00:23.945Z,-0.20
2019-01-30T21:02:52.403Z,-0.20
2019-01-30T21:05:21.030Z,-0.30
2019-01-30T21:07:51.111Z,-0.30
2019-01-30T21:10:28.244Z,-0.30
2019-01-30T21:12:56.806Z,-0.40
2019-01-30T21:15:25.423Z,-0.40
2019-01-30T21:17:54.023Z,-0.40
2019-01-30T21:20:22.478Z,-0.50
2019-01-30T21:22:51.012Z,-0.50
2019-01-30T21:25:20.795Z,-0.50
2019-01-30T21:27:49.704Z,-0.60
2019-01-30T21:30:21.251Z,-0.60
2019-01-30T21:32:49.718Z,-0.60
2019-01-30T21:35:18.236Z,-0.70
2019-01-30T21:37:49.174Z,-0.70
2019-01-30T21:40:19.068Z,-0.70
2019-01-30T21:42:48.377Z,-0.70
2019-01-30T21:45:21.207Z,-0.80
2019-01-30T21:47:49.941Z,-0.80
2019-01-30T21:50:18.733Z,-0.90
2019-01-30T21:52:47.256Z,-0.90
2019-01-30T21:55:23.348Z,-0.90
2019-01-30T21:57:51.953Z,-0.90
2019-01-30T22:00:25.962Z,-1.00
2019-01-30T22:02:54.834Z,-1.10
2019-01-30T22:05:23.525Z,-1.00
2019-01-30T22:08:00.582Z,-1.10
2019-01-30T22:10:24.671Z,-1.10
2019-01-30T22:12:53.139Z,-1.20
2019-01-30T22:15:21.836Z,-1.20
2019-01-30T22:17:50.421Z,-1.20
2019-01-30T22:20:21.011Z,-1.20
2019-01-30T22:22:49.551Z,-1.20
2019-01-30T22:25:20.822Z,-1.10
2019-01-30T22:27:49.548Z,-1.10
2019-01-30T22:30:32.434Z,-1.10
2019-01-30T22:33:00.999Z,-1.00
2019-01-30T22:35:29.821Z,-1.00
2019-01-30T22:37:58.407Z,-1.00
2019-01-30T22:40:27.028Z,-1.00
2019-01-30T22:42:55.619Z,-1.00
2019-01-30T22:45:24.185Z,-1.00
2019-01-30T22:47:52.897Z,-1.10
2019-01-30T22:50:21.720Z,-1.10
2019-01-30T22:52:50.346Z,-1.10
2019-01-30T22:55:20.951Z,-1.20
2019-01-30T22:57:50.995Z,-1.20
2019-01-30T23:00:52.816Z,-1.20
2019-01-30T23:03:27.332Z,-1.20
2019-01-30T23:06:18.293Z,-1.20
2019-01-30T23:09:07.727Z,-1.30
2019-01-30T23:11:58.481Z,-1.30
2019-01-30T23:14:27.111Z,-1.30
2019-01-30T23:17:04.944Z,-1.30
2019-01-30T23:19:45.307Z,-1.30
2019-01-30T23:22:26.026Z,-1.30
2019-01-30T23:25:03.172Z,-1.40
2019-01-30T23:27:37.656Z,-1.40
2019-01-30T23:30:25.877Z,-1.40
2019-01-30T23:33:15.780Z,-1.40
2019-01-30T23:35:50.097Z,-1.50
2019-01-30T23:38:34.284Z,-1.50
2019-01-30T23:41:06.796Z,-1.50
2019-01-30T23:43:41.498Z,-1.50
2019-01-30T23:46:28.340Z,-1.50
2019-01-30T23:49:21.001Z,-1.50
2019-01-30T23:52:17.596Z,-1.40
2019-01-30T23:54:52.229Z,-1.40
2019-01-30T23:57:26.457Z,-1.40
